Time;durP1;ratioP1;P1;durP2;ratioP2;P2;SDS_P1;SDS_P2;PMS_P1;PMS_P2;Temp;Humidity;BMP_temperature;BMP_pressure;BME280_temperature;BME280_humidity;BME280_pressure;Samples;Min_cycle;Max_cycle;Signal;HPM_P1;HPM_P2
2021/10/08 00:02:22;;;;;;;8.90;3.63;;;;;;;;;;5059695;28;20904;-76
2021/10/08 00:04:52;;;;;;;7.53;3.67;;;;;;;;;;5069375;28;20924;-75
2021/10/08 00:07:18;;;;;;;4.53;3.60;;;8.80;1.00;;;;;;5059751;28;20421;-74
2021/10/08 00:09:44;;;;;;;7.33;3.70;;;8.80;1.00;;;;;;5075354;28;20397;-74
2021/10/08 00:12:10;;;;;;;8.30;3.87;;;;;;;;;;5042479;28;20183;-75
2021/10/08 00:14:36;;;;;;;6.50;3.93;;;8.80;1.00;;;;;;5064363;28;20409;-74
2021/10/08 00:17:04;;;;;;;9.00;3.30;;;;;;;;;;5074925;28;21066;-74
2021/10/08 00:19:31;;;;;;;4.60;3.13;;;;;;;;;;5074762;28;20160;-74
2021/10/08 00:22:21;;;;;;;8.60;3.70;;;8.90;1.00;;;;;;5074134;28;20777;-75
2021/10/08 00:24:48;;;;;;;4.77;3.40;;;;;;;;;;5075124;28;20485;-76
2021/10/08 00:27:14;;;;;;;4.37;3.10;;;;;;;;;;5035394;28;20399;-76
2021/10/08 00:29:40;;;;;;;11.10;3.50;;;;;;;;;;5058527;28;20528;-75
2021/10/08 00:32:06;;;;;;;6.00;3.50;;;8.80;1.00;;;;;;5060617;28;20446;-75
2021/10/08 00:34:34;;;;;;;4.13;2.97;;;;;;;;;;5055118;28;20398;-75
2021/10/08 00:37:00;;;;;;;5.83;3.70;;;;;;;;;;5053656;28;20175;-74
2021/10/08 00:39:26;;;;;;;6.87;3.80;;;;;;;;;;5054542;28;20399;-74
2021/10/08 00:41:53;;;;;;;8.30;4.10;;;8.80;1.00;;;;;;5065934;28;20414;-74
2021/10/08 00:44:19;;;;;;;4.67;3.03;;;;;;;;;;5052321;28;20433;-74
2021/10/08 00:46:46;;;;;;;8.30;3.30;;;;;;;;;;5034452;28;20785;-75
2021/10/08 00:49:12;;;;;;;8.70;3.80;;;;;;;;;;5034448;28;20447;-74
2021/10/08 00:51:40;;;;;;;4.10;2.70;;;;;;;;;;5034824;28;20395;-74
2021/10/08 00:54:06;;;;;;;4.53;2.70;;;;;;;;;;5054156;28;20476;-74
2021/10/08 00:56:33;;;;;;;5.90;3.57;;;;;;;;;;5047705;28;20419;-74
2021/10/08 00:59:16;;;;;;;5.53;3.10;;;;;;;;;;5063404;28;20412;-74
2021/10/08 01:01:52;;;;;;;7.23;3.47;;;;;;;;;;5064211;28;20788;-74
2021/10/08 01:04:18;;;;;;;7.23;3.17;;;;;;;;;;5072915;28;20413;-74
2021/10/08 01:06:46;;;;;;;5.00;3.13;;;;;;;;;;5074499;28;20857;-75
2021/10/08 01:09:22;;;;;;;4.80;2.87;;;;;;;;;;5073935;28;20447;-75
2021/10/08 01:12:09;;;;;;;4.80;3.33;;;8.70;1.00;;;;;;5055501;28;20936;-75
2021/10/08 01:14:40;;;;;;;6.97;4.07;;;;;;;;;;5034190;28;20394;-75
2021/10/08 01:17:16;;;;;;;12.40;2.50;;;8.60;1.00;;;;;;5033220;28;20399;-75
2021/10/08 01:19:47;;;;;;;11.87;4.17;;;;;;;;;;5033932;28;20741;-76
2021/10/08 01:22:16;;;;;;;8.17;4.33;;;;;;;;;;5033179;28;20403;-75
2021/10/08 01:24:46;;;;;;;19.77;4.13;;;;;;;;;;5034273;28;20927;-75
2021/10/08 01:27:22;;;;;;;4.53;2.83;;;;;;;;;;5054882;28;20907;-75
2021/10/08 01:29:59;;;;;;;5.93;3.23;;;8.50;1.00;;;;;;5049245;28;20755;-75
2021/10/08 01:32:40;;;;;;;4.23;2.63;;;;;;;;;;5034029;28;20423;-75
2021/10/08 01:35:07;;;;;;;3.63;3.10;;;;;;;;;;5032842;28;20483;-75
2021/10/08 01:37:33;;;;;;;5.30;3.20;;;;;;;;;;5032726;28;20457;-74
2021/10/08 01:40:02;;;;;;;12.40;3.70;;;;;;;;;;5033845;28;20416;-74
2021/10/08 01:42:28;;;;;;;6.97;3.93;;;;;;;;;;5067251;28;20861;-75
2021/10/08 01:44:54;;;;;;;8.97;3.00;;;;;;;;;;5072587;28;20409;-74
2021/10/08 01:47:28;;;;;;;5.57;3.30;;;;;;;;;;5059887;28;20416;-74
2021/10/08 01:49:58;;;;;;;10.73;3.67;;;;;;;;;;5070725;28;20409;-75
2021/10/08 01:52:28;;;;;;;10.00;3.50;;;;;;;;;;5058084;28;20426;-75
2021/10/08 01:54:54;;;;;;;4.20;3.37;;;;;;;;;;5054252;28;20414;-75
2021/10/08 01:57:25;;;;;;;3.13;2.27;;;;;;;;;;5058791;28;20453;-76
2021/10/08 01:59:51;;;;;;;4.70;3.10;;;;;;;;;;5058788;28;20422;-75
2021/10/08 02:02:22;;;;;;;8.80;3.13;;;;;;;;;;5067457;28;20413;-75
2021/10/08 02:04:52;;;;;;;8.93;4.13;;;;;;;;;;5073618;28;20389;-75
2021/10/08 02:07:18;;;;;;;7.47;3.07;;;;;;;;;;5070383;28;20909;-75
2021/10/08 02:09:45;;;;;;;4.63;3.50;;;;;;;;;;5056763;28;20444;-76
2021/10/08 02:12:11;;;;;;;6.50;3.13;;;;;;;;;;5043273;28;20410;-75
2021/10/08 02:14:37;;;;;;;9.30;3.87;;;;;;;;;;5044885;28;20410;-75
2021/10/08 02:17:03;;;;;;;4.77;2.50;;;;;;;;;;5056557;28;20391;-76
2021/10/08 02:19:29;;;;;;;4.67;2.63;;;;;;;;;;5054598;28;20781;-76
2021/10/08 02:21:55;;;;;;;2.57;2.37;;;;;;;;;;5044349;28;20422;-75
2021/10/08 02:24:21;;;;;;;4.83;3.00;;;;;;;;;;5056829;28;20395;-75
2021/10/08 02:26:52;;;;;;;3.80;2.97;;;;;;;;;;5070734;28;20430;-75
2021/10/08 02:29:22;;;;;;;5.53;3.60;;;;;;;;;;5076419;28;20661;-75
2021/10/08 02:31:48;;;;;;;5.50;3.67;;;8.60;1.00;;;;;;5053173;28;20457;-75
2021/10/08 02:34:14;;;;;;;2.60;2.40;;;;;;;;;;5036001;28;20925;-75
2021/10/08 02:36:40;;;;;;;4.60;3.10;;;;;;;;;;5037183;28;20422;-75
2021/10/08 02:39:10;;;;;;;5.73;2.80;;;;;;;;;;5037296;28;20426;-74
2021/10/08 02:41:38;;;;;;;7.07;3.30;;;;;;;;;;5048592;28;21077;-74
2021/10/08 02:44:04;;;;;;;9.10;2.60;;;;;;;;;;5056879;28;20881;-74
2021/10/08 02:46:40;;;;;;;4.03;2.80;;;;;;;;;;5056732;28;20421;-74
2021/10/08 02:49:10;;;;;;;7.10;2.77;;;;;;;;;;5069236;28;20448;-74
2021/10/08 02:51:41;;;;;;;6.40;3.80;;;;;;;;;;5067800;28;20417;-74
2021/10/08 02:54:10;;;;;;;3.27;2.87;;;;;;;;;;5076554;28;20900;-75
2021/10/08 02:56:36;;;;;;;3.93;2.73;;;;;;;;;;5076172;28;20401;-75
2021/10/08 02:59:02;;;;;;;4.50;2.57;;;;;;;;;;5076251;28;20397;-75
2021/10/08 03:01:28;;;;;;;5.63;2.90;;;;;;;;;;5064686;28;21024;-75
2021/10/08 03:03:55;;;;;;;4.90;2.70;;;;;;;;;;5055989;28;20896;-75
2021/10/08 03:06:22;;;;;;;12.40;3.47;;;;;;;;;;5056146;28;20391;-75
2021/10/08 03:08:58;;;;;;;4.43;2.30;;;;;;;;;;5056530;28;20477;-74
2021/10/08 03:11:25;;;;;;;5.67;3.00;;;;;;;;;;5054374;28;20394;-75
2021/10/08 03:13:51;;;;;;;3.07;2.50;;;;;;;;;;5036308;28;20441;-74
2021/10/08 03:16:22;;;;;;;6.43;3.00;;;;;;;;;;5036206;28;20769;-74
2021/10/08 03:18:48;;;;;;;4.30;3.20;;;;;;;;;;5047052;28;20426;-74
2021/10/08 03:21:16;;;;;;;4.83;3.13;;;;;;;;;;5066589;28;20418;-74
2021/10/08 03:23:42;;;;;;;15.40;3.57;;;;;;;;;;5056319;28;20390;-74
2021/10/08 03:26:10;;;;;;;5.57;2.73;;;;;;;;;;5060041;28;20413;-74
2021/10/08 03:28:36;;;;;;;2.73;2.10;;;;;;;;;;5075975;28;20464;-74
2021/10/08 03:31:03;;;;;;;6.73;3.07;;;;;;;;;;5060614;28;20448;-74
2021/10/08 03:33:29;;;;;;;2.50;2.30;;;;;;;;;;5055687;28;20528;-74
2021/10/08 03:35:56;;;;;;;6.80;4.20;;;;;;;;;;5055722;28;20386;-74
2021/10/08 03:38:22;;;;;;;6.00;3.27;;;;;;;;;;5056150;28;20736;-74
2021/10/08 03:41:00;;;;;;;6.00;3.83;;;;;;;;;;5055449;28;20466;-74
2021/10/08 03:43:26;;;;;;;5.37;2.70;;;;;;;;;;5072488;28;20417;-74
2021/10/08 03:45:54;;;;;;;4.40;2.80;;;8.10;1.00;;;;;;5059846;28;20408;-75
2021/10/08 03:51:10;;;;;;;3.00;2.30;;;8.10;1.00;;;;;;5063831;28;20414;-81
2021/10/08 03:53:40;;;;;;;10.60;3.57;;;8.10;1.00;;;;;;5036352;28;20771;-74
2021/10/08 03:56:05;;;;;;;3.87;2.73;;;8.00;1.00;;;;;;5035473;28;20793;-74
2021/10/08 03:58:31;;;;;;;4.30;2.30;;;;;;;;;;5047096;28;20508;-74
2021/10/08 04:00:57;;;;;;;3.50;2.60;;;;;;;;;;5047928;28;20568;-75
2021/10/08 04:03:28;;;;;;;2.40;2.20;;;8.00;1.00;;;;;;5044998;28;20425;-75
2021/10/08 04:05:58;;;;;;;6.43;2.87;;;8.00;1.00;;;;;;5053648;28;20897;-74
2021/10/08 04:08:24;;;;;;;3.70;2.87;;;8.00;1.00;;;;;;5055773;28;20941;-74
2021/10/08 04:10:50;;;;;;;5.33;2.60;;;;;;;;;;5053666;28;20505;-74
2021/10/08 04:13:16;;;;;;;3.87;2.47;;;7.90;1.00;;;;;;5055204;28;20785;-74
2021/10/08 04:15:46;;;;;;;8.93;3.00;;;8.00;1.00;;;;;;5064657;28;20444;-74
2021/10/08 04:18:12;;;;;;;6.00;3.10;;;;;;;;;;5035159;28;20886;-74
2021/10/08 04:20:38;;;;;;;12.73;2.60;;;7.90;1.00;;;;;;5053529;28;20410;-74
2021/10/08 04:23:17;;;;;;;4.10;2.80;;;7.90;1.00;;;;;;5055025;28;20521;-75
2021/10/08 04:25:47;;;;;;;3.50;2.20;;;7.90;1.00;;;;;;5055339;28;20430;-75
2021/10/08 04:28:13;;;;;;;3.83;2.73;;;7.90;1.00;;;;;;5056082;28;20499;-75
2021/10/08 04:30:52;;;;;;;3.40;2.60;;;;;;;;;;5072993;28;20746;-75
2021/10/08 04:33:21;;;;;;;4.47;3.10;;;7.90;1.00;;;;;;5069721;28;20445;-75
2021/10/08 04:35:56;;;;;;;5.23;3.07;;;;;;;;;;5050635;28;20422;-75
2021/10/08 04:38:22;;;;;;;4.80;2.57;;;;;;;;;;5035167;28;20383;-74
2021/10/08 04:40:48;;;;;;;5.50;3.07;;;;;;;;;;5033317;28;20400;-75
2021/10/08 04:43:15;;;;;;;5.60;3.10;;;;;;;;;;5035150;28;20411;-75
2021/10/08 04:45:42;;;;;;;4.63;2.90;;;;;;;;;;5034214;28;20482;-74
2021/10/08 04:48:08;;;;;;;4.10;2.80;;;;;;;;;;5032905;28;20832;-75
2021/10/08 04:50:40;;;;;;;12.77;3.90;;;;;;;;;;5034349;28;20487;-74
2021/10/08 04:53:23;;;;;;;6.30;3.80;;;8.00;1.00;;;;;;5038454;28;20433;-75
2021/10/08 04:55:50;;;;;;;5.33;3.07;;;8.00;1.00;;;;;;5053948;28;20886;-75
2021/10/08 04:58:16;;;;;;;4.53;2.77;;;8.00;1.00;;;;;;5053783;28;20928;-75
2021/10/08 05:00:43;;;;;;;6.63;3.50;;;;;;;;;;5054416;28;20485;-75
2021/10/08 05:03:16;;;;;;;12.10;3.60;;;8.00;1.00;;;;;;5049893;28;20538;-74
2021/10/08 05:05:53;;;;;;;7.67;3.17;;;8.20;1.00;;;;;;5034266;28;20407;-75
2021/10/08 05:08:28;;;;;;;4.60;2.90;;;;;;;;;;5032719;28;20481;-75
2021/10/08 05:10:54;;;;;;;5.00;3.10;;;;;;;;;;5034438;28;20414;-74
2021/10/08 05:13:20;;;;;;;5.93;2.80;;;;;;;;;;5037673;28;20865;-74
2021/10/08 05:15:47;;;;;;;5.50;3.60;;;;;;;;;;5053997;28;20497;-74
2021/10/08 05:18:16;;;;;;;9.30;3.27;;;;;;;;;;5052631;28;20407;-74
2021/10/08 05:20:42;;;;;;;10.13;3.30;;;;;;;;;;5049945;28;20422;-74
2021/10/08 05:23:08;;;;;;;5.43;3.20;;;;;;;;;;5054028;28;20540;-74
2021/10/08 05:25:34;;;;;;;10.20;3.07;;;;;;;;;;5044497;28;20917;-75
2021/10/08 05:28:04;;;;;;;5.27;3.23;;;;;;;;;;5034108;28;20447;-75
2021/10/08 05:30:30;;;;;;;10.33;2.50;;;;;;;;;;5032600;28;20407;-75
2021/10/08 05:33:04;;;;;;;7.23;3.40;;;;;;;;;;5052855;28;20862;-78
2021/10/08 05:35:40;;;;;;;14.20;4.20;;;;;;;;;;5037644;28;20877;-75
2021/10/08 05:38:10;;;;;;;7.47;3.30;;;;;;;;;;5042589;28;20752;-75
2021/10/08 05:40:36;;;;;;;5.50;3.40;;;;;;;;;;5051617;28;20735;-75
2021/10/08 05:43:03;;;;;;;3.17;2.60;;;8.00;1.00;;;;;;5051344;28;20406;-75
2021/10/08 05:45:34;;;;;;;3.00;2.50;;;;;;;;;;5037877;28;20407;-75
2021/10/08 05:48:16;;;;;;;3.63;2.57;;;;;;;;;;5032976;28;20486;-75
2021/10/08 05:50:58;;;;;;;8.47;3.93;;;;;;;;;;5052630;28;20919;-75
2021/10/08 05:53:34;;;;;;;4.90;3.50;;;;;;;;;;5053795;28;20418;-75
2021/10/08 05:56:00;;;;;;;8.00;3.83;;;;;;;;;;5051416;28;20398;-75
2021/10/08 05:58:26;;;;;;;4.73;2.97;;;;;;;;;;5033755;28;20457;-75
2021/10/08 06:00:58;;;;;;;10.90;4.03;;;;;;;;;;5033872;28;20395;-75
2021/10/08 06:03:34;;;;;;;4.70;2.87;;;;;;;;;;5033772;28;20881;-75
2021/10/08 06:06:00;;;;;;;5.53;3.17;;;;;;;;;;5033722;28;20403;-75
2021/10/08 06:08:28;;;;;;;6.90;3.80;;;;;;;;;;5033508;28;20928;-75
2021/10/08 06:10:54;;;;;;;8.93;5.00;;;;;;;;;;5035571;28;20901;-74
2021/10/08 06:13:21;;;;;;;9.87;4.70;;;;;;;;;;5052961;28;20401;-74
2021/10/08 06:15:47;;;;;;;15.13;4.60;;;;;;;;;;5033496;28;20423;-74
2021/10/08 06:18:16;;;;;;;5.67;3.90;;;;;;;;;;5033717;28;20430;-74
2021/10/08 06:20:42;;;;;;;6.90;4.30;;;;;;;;;;5033243;28;20407;-74
2021/10/08 06:23:10;;;;;;;8.93;4.40;;;;;;;;;;5042148;28;20761;-74
2021/10/08 06:25:40;;;;;;;10.07;4.37;;;;;;;;;;5040388;28;20404;-75
2021/10/08 06:28:10;;;;;;;8.20;3.50;;;;;;;;;;5033462;28;21151;-75
2021/10/08 06:30:46;;;;;;;8.50;4.33;;;;;;;;;;5033385;28;20429;-75
2021/10/08 06:33:28;;;;;;;10.83;4.27;;;;;;;;;;5032012;28;20461;-74
2021/10/08 06:35:58;;;;;;;11.23;3.17;;;;;;;;;;5047484;28;20452;-75
2021/10/08 06:38:28;;;;;;;5.17;4.13;;;;;;;;;;5040283;28;20870;-75
2021/10/08 06:40:54;;;;;;;18.90;4.13;;;;;;;;;;5039115;28;20773;-75
2021/10/08 06:43:22;;;;;;;11.07;5.23;;;;;;;;;;5053265;28;20395;-75
2021/10/08 06:45:49;;;;;;;8.93;4.47;;;;;;;;;;5053204;28;20872;-75
2021/10/08 06:48:16;;;;;;;13.80;4.93;;;;;;;;;;5053273;28;20452;-75
2021/10/08 06:50:42;;;;;;;6.47;4.37;;;;;;;;;;5053101;28;20422;-75
2021/10/08 06:53:10;;;;;;;10.40;5.63;;;;;;;;;;5052994;28;20906;-75
2021/10/08 06:55:36;;;;;;;8.53;5.17;;;;;;;;;;5049520;28;20890;-75
2021/10/08 06:58:06;;;;;;;7.10;4.33;;;;;;;;;;5036795;28;20391;-75
2021/10/08 07:00:32;;;;;;;22.43;5.37;;;;;;;;;;5036193;28;20909;-74
2021/10/08 07:03:04;;;;;;;8.50;4.57;;;;;;;;;;5036404;28;20391;-75
2021/10/08 07:05:34;;;;;;;8.53;4.40;;;;;;;;;;5036803;28;20434;-75
2021/10/08 07:08:04;;;;;;;8.43;5.17;;;;;;;;;;5036644;28;20557;-75
2021/10/08 07:10:31;;;;;;;12.10;5.63;;;;;;;;;;5036945;28;20400;-75
2021/10/08 07:12:58;;;;;;;7.93;5.20;;;;;;;;;;5040710;28;20390;-75
2021/10/08 07:15:34;;;;;;;11.90;5.40;;;;;;;;;;5056291;28;20409;-75
2021/10/08 07:18:01;;;;;;;9.33;5.17;;;;;;;;;;5056303;28;20383;-75
2021/10/08 07:20:28;;;;;;;11.67;5.77;;;10.10;1.00;;;;;;5056302;28;20401;-75
2021/10/08 07:23:04;;;;;;;43.10;5.20;;;;;;;;;;5056317;28;20399;-76
2021/10/08 07:25:34;;;;;;;12.97;5.57;;;;;;;;;;5056494;28;20406;-75
2021/10/08 07:28:04;;;;;;;14.50;5.80;;;;;;;;;;5056264;28;20442;-75
2021/10/08 07:30:31;;;;;;;10.93;6.00;;;;;;;;;;5056406;28;20399;-75
2021/10/08 07:32:58;;;;;;;10.07;5.93;;;;;;;;;;5053009;28;20778;-75
2021/10/08 07:35:35;;;;;;;24.30;7.63;;;;;;;;;;5035889;28;20478;-75
2021/10/08 07:38:16;;;;;;;14.70;6.93;;;;;;;;;;5035985;28;20395;-76
2021/10/08 07:40:42;;;;;;;11.83;6.73;;;;;;;;;;5036203;28;20875;-75
2021/10/08 07:43:09;;;;;;;14.53;7.00;;;;;;;;;;5035708;28;20427;-74
2021/10/08 07:45:35;;;;;;;17.20;7.30;;;;;;;;;;5035647;28;20406;-74
2021/10/08 07:48:10;;;;;;;14.47;7.80;;;;;;;;;;5035657;28;20840;-74
2021/10/08 07:50:40;;;;;;;19.70;7.30;;;;;;;;;;5038175;28;20391;-74
2021/10/08 07:53:10;;;;;;;12.53;7.23;;;;;;;;;;5055681;28;20829;-74
2021/10/08 07:55:40;;;;;;;33.20;7.60;;;;;;;;;;5055878;28;20402;-75
2021/10/08 07:58:16;;;;;;;18.43;7.77;;;;;;;;;;5055560;28;20394;-75
2021/10/08 08:00:42;;;;;;;11.87;6.50;;;;;;;;;;5055477;28;20865;-75
2021/10/08 08:03:09;;;;;;;16.33;6.63;;;;;;;;;;5055347;28;20395;-75
2021/10/08 08:05:35;;;;;;;13.47;7.10;;;;;;;;;;5053986;28;20754;-75
2021/10/08 08:08:04;;;;;;;15.50;7.77;;;;;;;;;;5055112;28;20776;-75
2021/10/08 08:10:30;;;;;;;34.03;8.00;;;;;;;;;;5055585;28;20401;-74
2021/10/08 08:12:57;;;;;;;24.80;7.70;;;;;;;;;;5055228;28;20391;-75
2021/10/08 08:15:23;;;;;;;14.17;6.83;;;;;;;;;;5050862;28;20430;-74
2021/10/08 08:17:52;;;;;;;12.23;6.10;;;;;;;;;;5040751;28;20790;-74
2021/10/08 08:20:18;;;;;;;10.60;6.10;;;;;;;;;;5050731;28;20917;-75
2021/10/08 08:22:45;;;;;;;14.00;6.43;;;;;;;;;;5055330;28;20484;-75
2021/10/08 08:25:16;;;;;;;8.00;4.90;;;;;;;;;;5054868;28;20390;-75
2021/10/08 08:27:46;;;;;;;12.70;5.03;;;;;;;;;;5044538;28;20926;-77
2021/10/08 08:30:38;;;;;;;8.77;5.30;;;12.50;1.00;;;;;;5034504;28;20407;-77
2021/10/08 08:33:04;;;;;;;13.40;5.70;;;;;;;;;;5034509;28;20514;-77
2021/10/08 08:35:31;;;;;;;22.30;6.13;;;;;;;;;;5034333;28;20453;-77
2021/10/08 08:37:58;;;;;;;11.10;4.67;;;;;;;;;;5034276;28;20391;-77
2021/10/08 08:40:45;;;;;;;7.27;4.73;;;;;;;;;;5072016;28;20413;-77
2021/10/08 08:43:12;;;;;;;8.47;4.70;;;;;;;;;;5074336;28;20400;-75
2021/10/08 08:45:40;;;;;;;6.63;4.13;;;;;;;;;;5074618;28;20428;-75
2021/10/08 08:48:11;;;;;;;24.07;5.57;;;13.20;1.00;;;;;;5039116;28;20454;-75
2021/10/08 08:50:39;;;;;;;9.17;4.80;;;;;;;;;;5043426;28;20418;-75
2021/10/08 08:53:11;;;;;;;8.27;4.67;;;13.30;1.00;;;;;;5037192;28;20470;-75
2021/10/08 08:55:40;;;;;;;7.27;4.37;;;;;;;;;;5049730;28;20500;-75
2021/10/08 08:58:06;;;;;;;11.27;4.57;;;13.50;1.00;;;;;;5053357;28;21027;-77
2021/10/08 09:00:39;;;;;;;5.70;4.37;;;;;;;;;;5048529;28;20415;-77
2021/10/08 09:03:13;;;;;;;6.77;3.70;;;;;;;;;;5033051;28;20800;-76
2021/10/08 09:05:45;;;;;;;10.23;4.03;;;13.80;1.00;;;;;;5034584;28;20395;-76
2021/10/08 09:08:18;;;;;;;5.00;3.57;;;;;;;;;;5033937;28;20421;-76
2021/10/08 09:10:48;;;;;;;6.27;4.03;;;13.90;1.00;;;;;;5035302;28;20423;-76
2021/10/08 09:13:17;;;;;;;6.73;3.60;;;14.00;1.00;;;;;;5054223;28;20409;-76
2021/10/08 09:15:49;;;;;;;4.60;3.57;;;14.10;1.00;;;;;;5053882;28;20474;-77
2021/10/08 09:18:30;;;;;;;3.70;3.23;;;14.30;1.00;;;;;;5045751;28;20468;-77
2021/10/08 09:21:18;;;;;;;8.10;4.50;;;14.40;1.00;;;;;;5050385;28;20397;-77
2021/10/08 09:23:47;;;;;;;5.50;3.93;;;14.50;1.00;;;;;;5054171;28;20394;-77
2021/10/08 09:26:20;;;;;;;5.87;3.23;;;;;;;;;;5053972;28;20424;-76
2021/10/08 09:29:00;;;;;;;9.90;4.23;;;;;;;;;;5041708;28;20558;-78
2021/10/08 09:31:29;;;;;;;7.33;4.07;;;14.70;1.00;;;;;;5036985;28;20407;-75
2021/10/08 09:34:14;;;;;;;7.17;3.70;;;14.80;1.00;;;;;;5053942;28;20374;-76
2021/10/08 09:36:43;;;;;;;9.80;4.00;;;;;;;;;;5038916;28;20430;-75
2021/10/08 09:39:28;;;;;;;6.37;3.63;;;15.00;1.00;;;;;;5033841;28;20399;-75
2021/10/08 09:41:57;;;;;;;7.23;4.13;;;;;;;;;;5034020;28;20453;-76
2021/10/08 09:44:30;;;;;;;6.57;3.80;;;15.20;1.00;;;;;;5033474;28;20423;-77
2021/10/08 09:47:13;;;;;;;10.03;4.03;;;15.30;1.00;;;;;;5033155;28;20435;-78
2021/10/08 09:49:41;;;;;;;5.30;3.37;;;15.40;1.00;;;;;;5044253;28;20579;-76
2021/10/08 09:52:27;;;;;;;5.20;3.43;;;15.50;1.00;;;;;;5033306;28;20377;-77
2021/10/08 09:54:53;;;;;;;6.17;3.53;;;;;;;;;;5050528;28;20392;-76
2021/10/08 09:57:21;;;;;;;12.23;3.50;;;;;;;;;;5049348;28;20754;-77
2021/10/08 09:59:58;;;;;;;4.90;3.60;;;;;;;;;;5044081;28;20842;-77
2021/10/08 10:02:28;;;;;;;4.87;3.47;;;;;;;;;;5040625;28;20474;-77
2021/10/08 10:05:00;;;;;;;8.37;3.83;;;;;;;;;;5033637;28;20444;-76
2021/10/08 10:07:27;;;;;;;8.23;3.70;;;;;;;;;;5047092;28;20421;-76
2021/10/08 10:09:53;;;;;;;12.80;3.47;;;;;;;;;;5038107;28;20425;-76
2021/10/08 10:12:22;;;;;;;4.47;3.30;;;;;;;;;;5033789;28;20403;-76
2021/10/08 10:14:51;;;;;;;10.17;3.97;;;;;;;;;;5031962;28;20412;-76
2021/10/08 10:17:18;;;;;;;14.30;3.80;;;;;;;;;;5044870;28;20420;-76
2021/10/08 10:19:47;;;;;;;7.33;3.53;;;16.50;1.00;;;;;;5053079;28;20730;-77
2021/10/08 10:22:22;;;;;;;18.67;4.30;;;;;;;;;;5052143;28;20429;-76
2021/10/08 10:24:53;;;;;;;5.60;3.20;;;;;;;;;;5053213;28;20402;-74
2021/10/08 10:27:28;;;;;;;3.63;2.70;;;;;;;;;;5052324;28;20581;-75
2021/10/08 10:29:55;;;;;;;6.90;3.10;;;17.50;1.00;;;;;;5046111;28;20426;-76
2021/10/08 10:32:21;;;;;;;5.23;3.30;;;17.80;1.00;;;;;;5043964;28;20548;-77
2021/10/08 10:35:36;;;;;;;5.30;3.07;;;17.90;1.00;;;;;;5040469;28;20407;-77
2021/10/08 10:38:26;;;;;;;4.43;3.20;;;18.20;1.00;;;;;;5036551;28;20880;-77
2021/10/08 10:41:33;;;;;;;6.73;3.10;;;18.40;1.00;;;;;;5015314;28;20381;-77
2021/10/08 10:44:41;;;;;;;5.40;3.03;;;18.40;1.00;;;;;;5015642;28;20383;-77
2021/10/08 10:47:36;;;;;;;5.10;3.40;;;18.60;1.00;;;;;;4956525;29;20424;-76
2021/10/08 10:50:27;;;;;;;6.10;3.47;;;18.60;1.00;;;;;;4961835;28;20454;-78
2021/10/08 10:52:59;;;;;;;3.93;2.80;;;18.70;1.00;;;;;;4956768;29;20371;-79
2021/10/08 10:55:25;;;;;;;4.10;3.00;;;;;;;;;;4956434;29;20801;-77
2021/10/08 10:58:22;;;;;;;6.13;3.70;;;18.50;1.00;;;;;;4956475;29;20894;-78
2021/10/08 11:01:22;;;;;;;6.33;3.17;;;;;;;;;;4964144;28;20440;-78
2021/10/08 11:03:48;;;;;;;7.37;3.60;;;;;;;;;;4974071;28;20393;-80
2021/10/08 11:06:20;;;;;;;3.50;2.90;;;;;;;;;;4956425;29;20426;-77
2021/10/08 11:09:07;;;;;;;4.40;3.23;;;18.50;1.00;;;;;;4956079;29;20461;-78
2021/10/08 11:11:40;;;;;;;6.10;3.40;;;;;;;;;;4956120;29;20814;-77
2021/10/08 11:14:20;;;;;;;7.30;3.27;;;18.50;1.00;;;;;;4941680;28;20508;-73
2021/10/08 11:16:47;;;;;;;7.20;3.70;;;;;;;;;;4975227;28;20395;-73
2021/10/08 11:19:40;;;;;;;9.63;3.20;;;18.90;1.00;;;;;;4975112;28;20384;-74
2021/10/08 11:22:07;;;;;;;7.50;3.77;;;18.90;1.00;;;;;;5032681;28;20823;-73
2021/10/08 11:24:33;;;;;;;7.03;4.10;;;;;;;;;;5038760;28;20491;-73
2021/10/08 11:27:02;;;;;;;8.97;4.10;;;18.80;1.00;;;;;;5053428;28;20410;-73
2021/10/08 11:29:33;;;;;;;6.97;3.93;;;18.80;1.00;;;;;;5036288;28;20536;-73
2021/10/08 11:32:06;;;;;;;6.60;3.60;;;18.80;1.00;;;;;;5041614;28;20475;-74
2021/10/08 11:35:01;;;;;;;6.80;3.97;;;;;;;;;;5043254;28;20441;-73
2021/10/08 11:37:29;;;;;;;8.00;3.93;;;;;;;;;;5036657;28;20404;-73
2021/10/08 11:39:55;;;;;;;8.53;3.90;;;;;;;;;;5035797;28;20412;-73
2021/10/08 11:42:27;;;;;;;5.13;3.50;;;;;;;;;;5034562;28;20402;-73
2021/10/08 11:45:03;;;;;;;7.80;4.00;;;;;;;;;;5053874;28;20428;-78
2021/10/08 11:47:39;;;;;;;6.93;4.30;;;;;;;;;;5046713;28;20440;-78
2021/10/08 11:52:56;;;;;;;6.60;4.63;;;19.30;1.00;;;;;;5035657;28;20426;-77
2021/10/08 11:55:25;;;;;;;10.13;4.20;;;;;;;;;;5041977;28;20779;-78
2021/10/08 11:57:56;;;;;;;9.47;4.00;;;19.50;1.00;;;;;;5039602;28;20513;-76
2021/10/08 12:00:26;;;;;;;6.60;3.87;;;19.50;1.00;;;;;;5040009;28;20944;-77
2021/10/08 12:03:18;;;;;;;6.67;3.60;;;19.40;1.00;;;;;;5055419;28;20373;-76
2021/10/08 12:05:58;;;;;;;6.57;3.97;;;19.40;1.00;;;;;;5038494;28;20382;-76
2021/10/08 12:08:36;;;;;;;5.60;3.53;;;19.40;1.00;;;;;;5035283;28;20540;-79
2021/10/08 12:11:18;;;;;;;5.13;4.30;;;;;;;;;;5035244;28;20470;-76
2021/10/08 12:13:51;;;;;;;5.43;2.70;;;19.50;1.00;;;;;;5035442;28;20414;-75
2021/10/08 12:16:19;;;;;;;6.43;4.33;;;19.50;1.00;;;;;;5035023;28;20374;-76
2021/10/08 12:18:57;;;;;;;25.93;5.67;;;19.50;1.00;;;;;;5057140;28;20398;-75
2021/10/08 12:21:41;;;;;;;18.00;4.50;;;19.40;1.00;;;;;;5074658;28;20491;-75
2021/10/08 12:24:13;;;;;;;16.33;5.83;;;;;;;;;;5069317;28;20428;-75
2021/10/08 12:26:42;;;;;;;9.30;5.40;;;19.40;1.00;;;;;;5054902;28;20409;-75
2021/10/08 12:29:12;;;;;;;15.13;5.73;;;19.60;1.00;;;;;;5046594;28;20838;-76
2021/10/08 12:31:56;;;;;;;16.80;6.33;;;19.70;1.00;;;;;;5054836;28;20460;-76
2021/10/08 12:34:35;;;;;;;7.27;4.67;;;19.50;1.00;;;;;;5054841;28;21003;-75
2021/10/08 12:37:18;;;;;;;11.20;6.20;;;19.50;1.00;;;;;;5054519;28;20361;-75
2021/10/08 12:40:13;;;;;;;14.80;6.23;;;;;;;;;;5054054;28;20381;-75
2021/10/08 12:42:49;;;;;;;9.90;5.80;;;19.70;1.00;;;;;;5061398;28;20450;-75
2021/10/08 12:45:21;;;;;;;13.80;6.07;;;19.90;1.00;;;;;;5060155;28;20445;-73
2021/10/08 12:47:48;;;;;;;9.07;6.17;;;;;;;;;;5054127;28;20489;-74
2021/10/08 12:50:17;;;;;;;10.50;6.13;;;;;;;;;;5035216;28;20906;-74
2021/10/08 12:52:53;;;;;;;8.33;5.53;;;;;;;;;;5034096;28;20882;-74
2021/10/08 12:55:29;;;;;;;12.00;6.17;;;20.10;1.00;;;;;;5034660;28;20564;-73
2021/10/08 12:58:05;;;;;;;8.63;5.70;;;;;;;;;;5032855;28;20421;-72
2021/10/08 13:00:36;;;;;;;16.33;6.97;;;19.90;1.00;;;;;;5054185;28;20524;-72
2021/10/08 13:03:03;;;;;;;16.93;6.87;;;;;;;;;;5053971;28;20459;-74
2021/10/08 13:05:38;;;;;;;10.73;6.37;;;;;;;;;;5053927;28;20715;-74
2021/10/08 13:08:17;;;;;;;12.93;7.00;;;;;;;;;;5054058;28;20446;-74
2021/10/08 13:11:02;;;;;;;14.60;6.80;;;;;;;;;;5053436;28;20410;-74
2021/10/08 13:13:29;;;;;;;10.47;6.97;;;19.80;1.00;;;;;;5054157;28;20393;-74
2021/10/08 13:15:59;;;;;;;9.80;6.13;;;19.80;1.00;;;;;;5053749;28;20794;-74
2021/10/08 13:18:38;;;;;;;24.50;6.50;;;;;;;;;;5035098;28;20411;-74
2021/10/08 13:21:04;;;;;;;10.40;6.03;;;;;;;;;;5039085;28;20874;-74
2021/10/08 13:23:47;;;;;;;14.53;6.13;;;;;;;;;;5053940;28;20414;-74
2021/10/08 13:26:13;;;;;;;10.83;6.63;;;;;;;;;;5053659;28;20428;-75
2021/10/08 13:28:39;;;;;;;10.53;5.40;;;;;;;;;;5047827;28;20428;-77
2021/10/08 13:31:12;;;;;;;10.47;6.27;;;19.50;1.00;;;;;;5072879;28;20492;-76
2021/10/08 13:33:42;;;;;;;12.50;6.53;;;19.50;1.00;;;;;;5072690;28;20490;-76
2021/10/08 13:36:10;;;;;;;12.67;7.00;;;19.60;1.00;;;;;;5063113;28;20389;-73
2021/10/08 13:38:37;;;;;;;12.13;7.17;;;;;;;;;;5033813;28;20429;-74
2021/10/08 13:41:05;;;;;;;14.07;6.50;;;20.10;1.00;;;;;;5040722;28;20789;-75
2021/10/08 13:43:34;;;;;;;7.97;5.77;;;20.20;1.00;;;;;;5054974;28;20492;-75
2021/10/08 13:46:00;;;;;;;9.67;6.23;;;20.20;1.00;;;;;;5053606;28;20423;-75
2021/10/08 13:48:28;;;;;;;12.07;6.80;;;20.10;1.00;;;;;;5041155;28;20443;-76
2021/10/08 13:50:58;;;;;;;9.40;5.17;;;;;;;;;;5032335;28;20180;-75
2021/10/08 13:53:34;;;;;;;8.60;6.50;;;;;;;;;;5061735;28;20438;-75
2021/10/08 13:56:22;;;;;;;14.63;6.23;;;19.80;1.00;;;;;;5073744;28;20369;-75
2021/10/08 13:58:48;;;;;;;8.07;5.60;;;;;;;;;;5065491;28;20942;-72
2021/10/08 14:01:16;;;;;;;16.00;6.30;;;;;;;;;;5053847;28;20477;-78
2021/10/08 14:04:14;;;;;;;12.37;7.27;;;;;;;;;;5053706;28;20418;-78
2021/10/08 14:06:55;;;;;;;11.03;6.70;;;;;;;;;;5057844;28;20457;-75
2021/10/08 14:12:06;;;;;;;12.97;7.20;;;;;;;;;;5037622;28;20826;-74
2021/10/08 14:14:32;;;;;;;12.10;7.00;;;;;;;;;;5037907;28;20775;-76
2021/10/08 14:16:58;;;;;;;11.20;6.60;;;;;;;;;;5036204;28;20461;-76
2021/10/08 14:19:25;;;;;;;15.20;7.27;;;;;;;;;;5060115;28;20423;-75
2021/10/08 14:21:59;;;;;;;16.17;7.27;;;19.40;1.00;;;;;;5057705;28;20471;-77
2021/10/08 14:24:28;;;;;;;16.53;6.77;;;19.40;1.00;;;;;;5068036;28;20766;-77
2021/10/08 14:26:58;;;;;;;13.10;6.90;;;19.40;1.00;;;;;;5077605;28;20479;-78
2021/10/08 14:29:28;;;;;;;11.00;6.53;;;19.30;1.00;;;;;;5037951;28;20465;-77
2021/10/08 14:31:58;;;;;;;12.00;7.63;;;19.20;1.00;;;;;;5046295;28;20915;-78
2021/10/08 14:34:29;;;;;;;9.90;7.10;;;;;;;;;;5075856;28;20830;-78
2021/10/08 14:36:58;;;;;;;15.40;7.50;;;;;;;;;;5076887;28;20480;-78
2021/10/08 14:39:40;;;;;;;10.20;6.60;;;;;;;;;;5059107;28;20440;-77